NZAANFTF

Guest
Details From NZAA - Auckland International
To NFTF - Fua Amotu Intl
Flight Number -
Tags decoded
Created
Modified
Stats Distance 1,083 nm / 2,005 km
Max Altitude 0 ft / 0 m
Waypoints 4
Social Downloads 4
Likes 0
Share VATSIM

Download

Looking for another format? Having issues loading an existing format? Contact us
Advertisement - Login to hide

Notes

Requested: NZAA SELKA M078F370 B575 REPOL NFTF Unmatched points: M078F370 B575

Route

NZAA SELKA REPOL NFTF

ID Type Via Altitude Latitude Longitude Leg Dist Tot Dist Heading (true) Name
O NZAA APT - 0 ft / 0 m -37.01079˚ 174.78733˚ - 0 nm - Auckland International
SELKA FIX - 0 ft / 0 m -34.14933˚ 176.92756˚ 201 nm 201 nm 32° / 31° -
REPOL FIX - 0 ft / 0 m -25.00000˚ -177.24211˚ 627 nm 829 nm 30° / 28° -
O NFTF APT - 0 ft / 0 m -21.24249˚ -175.14457˚ 253 nm 1082 nm 28° / 27° Fua Amotu Intl

Altitude Profile

Advertisement - Login to hide

Weather


0- 5 10 15 20 25 30 35+ Temperature / ° C

Clouds and Precipitation
Forecast for 2017-12-15 00:00 UTC. Updated 2 hours ago

Ground ~20,000 ft ~40,000 ft Winds

NZAA

Details ICAO NZAA (AKL)
Name Auckland International
Region New Zealand and Antarctica
Timezone Pacific/Auckland (UTC+13.0)
Stats Elevation 23 ft / 7 m (AMSL)
Location -37.010794° 174.787331°
Runways 2
Magnetic Variation 19.833° E

METAR

NZAA 142300Z AUTO 01006KT 320V070 9999 FEW040/// BKN080/// 23/14 Q1019 BECMG FM0000 24010KT

Decode

TAF

TAF AMD NZAA 142202Z 1422/1518 36008KT 9999 SCT030 BECMG 1501/1503 24010KT BECMG 1507/1509 VRB02KT

Decode

Departure Runways

ID Width Length Bearing (true) Bearing (mag) Surface Threshold Offset Overrun Length
05L 157 ft / 48 m 10,844 ft / 3,305 m 70.91° 51.08° Concrete 1,240 ft / 378 m 460 ft / 140 m
05R 152 ft / 46 m 12,085 ft / 3,684 m 70.96° 51.13° Concrete 1,270 ft / 387 m 0 ft / 0 m
23L 152 ft / 46 m 12,085 ft / 3,684 m 250.94° 231.11° Concrete 0 ft / 0 m 0 ft / 0 m
23R 157 ft / 48 m 10,844 ft / 3,305 m 250.89° 231.06° Concrete 1,060 ft / 323 m 0 ft / 0 m

NFTF

Details ICAO NFTF (TBU)
Name Fua Amotu Intl
Region Fiji and Tonga
Timezone Pacific/Tongatapu (UTC+14.0)
Stats Elevation 126 ft / 38 m (AMSL)
Location -21.242493° -175.144569°
Runways 2
Magnetic Variation 13.666° E

METAR

NFTF 142300Z 00000KT 9999 FEW016 BKN120 25/19 Q1011

Decode

TAF

TAF NFTF 141710Z 1418/1518 13007KT 9999 FEW007 SCT017 BKN100

Decode

Destination Runways

ID Width Length Bearing (true) Bearing (mag) Surface Threshold Offset Overrun Length
11 148 ft / 45 m 8,967 ft / 2,733 m 122.10° 108.43° Asphalt 0 ft / 0 m 194 ft / 59 m
17 194 ft / 59 m 4,960 ft / 1,512 m 182.40° 168.73° Unknown 0 ft / 0 m 0 ft / 0 m
29 148 ft / 45 m 8,967 ft / 2,733 m 302.09° 288.42° Asphalt 0 ft / 0 m 194 ft / 59 m
35 194 ft / 59 m 4,960 ft / 1,512 m 2.40° 348.73° Unknown 0 ft / 0 m 0 ft / 0 m

Popular Alternatives